Barfleur — FNIE — position and weather

sailwx.info

Track history (hours):
 
Tides and Currents Weather Stations Pressure Air Temp Water Temp Dewpoint Dewpoint Depression Visibility Wind Speed Wind Dir Waves Ship Positions

Barfleur

Operator: Brittany Ferries

Last reported at 2015-Jul-05 08:33 UTC. Time now 2015-Jul-05 19:24 UTC.
Position N 50°30' W 001°52'.

Length 158 m; draft 5 m.

Type: Passenger vessel. MMSI: 227289000.

Date/timePositionNaut miles runAvg speedWind from/ knotsBaromVisibWave heightAir tempDewpointWater temp
2015-Jul-05 08:33N 50°30' W 001°52'1313.3
2015-Jul-05 07:33N 50°42' W 001°58'1 1.1
2015-Jul-05 06:33N 50°42' W 001°59'0 0.0
2015-Jul-05 05:34N 50°42' W 001°59'0 0.0
2015-Jul-05 04:33N 50°42' W 001°59'0 0.0
2015-Jul-05 03:34N 50°42' W 001°59'0 0.0
2015-Jul-05 02:33N 50°42' W 001°59'0 0.0
2015-Jul-05 01:33N 50°42' W 001°59'0 0.0
2015-Jul-05 00:33N 50°42' W 001°59'0 0.0
2015-Jul-04 23:33N 50°42' W 001°59'0 0.0
2015-Jul-04 22:32N 50°42' W 001°59'0 0.0
2015-Jul-04 21:34N 50°42' W 001°59'0 0.0
2015-Jul-04 20:34N 50°42' W 001°59'1212.3
2015-Jul-04 19:33N 50°31' W 001°51'2019.2
2015-Jul-04 18:31N 50°11' W 001°47'1819.1
2015-Jul-04 17:33N 49°53' W 001°43'1512.1
2015-Jul-04 16:19N 49°39' W 001°37'0 0.0
2015-Jul-04 15:33N 49°39' W 001°37'53 7.6
2015-Jul-04 08:33N 50°31' W 001°52'1211.9
2015-Jul-04 07:33N 50°42' W 001°59'0 0.1
2015-Jul-04 06:33N 50°42' W 001°59'0 0.0
2015-Jul-04 05:33N 50°42' W 001°59'0 0.0
2015-Jul-04 04:34N 50°42' W 001°59'0 0.0
2015-Jul-04 03:33N 50°42' W 001°59'0 0.0
2015-Jul-04 02:33N 50°42' W 001°59'0 0.0
2015-Jul-04 01:33N 50°42' W 001°59'0 0.0
2015-Jul-03 22:33N 50°42' W 001°59'0 0.0
2015-Jul-03 21:33N 50°42' W 001°59'0 0.2
2015-Jul-03 20:33N 50°42' W 001°59'1212.3
2015-Jul-03 19:33N 50°31' W 001°50'2119.1
2015-Jul-03 18:27N 50°10' W 001°49'32 4.6
2015-Jul-03 11:31N 49°40' W 001°37'1616.2
2015-Jul-03 10:33N 49°54' W 001°46'1918.6
2015-Jul-03 09:32N 50°13' W 001°45'1919.2
2015-Jul-03 08:33N 50°31' W 001°52'1212.0
2015-Jul-03 07:33N 50°42' W 001°59'0 0.1
2015-Jul-03 06:33N 50°42' W 001°59'0 0.0
2015-Jul-03 05:33N 50°42' W 001°59'0 0.0
2015-Jul-03 04:34N 50°42' W 001°59'0 0.0
2015-Jul-03 03:33N 50°42' W 001°59'0 0.0
2015-Jul-03 02:33N 50°42' W 001°59'0 0.0
2015-Jul-03 01:33N 50°42' W 001°59'0 0.0
2015-Jul-03 00:33N 50°42' W 001°59'0 0.0
2015-Jul-02 23:33N 50°42' W 001°59'0 0.0
2015-Jul-02 22:33N 50°42' W 001°59'0 0.0
2015-Jul-02 21:33N 50°42' W 001°59'4 3.6
2015-Jul-02 20:34N 50°40' W 001°56'1616.4
2015-Jul-02 19:33N 50°24' W 001°47'7 0.6
2015-Jul-02 08:33N 50°31' W 001°51'1313.0
2015-Jul-02 07:34N 50°42' W 001°59'0 0.0
2015-Jul-02 06:33N 50°42' W 001°59'0 0.1
2015-Jul-02 05:33N 50°42' W 001°60'1211.9
2015-Jul-02 04:33N 50°31' W 001°52'1614.2
2015-Jul-02 03:25N 50°16' W 001°45'1314.6
2015-Jul-02 02:32N 50°03' W 001°45'1414.4
2015-Jul-02 01:32N 49°49' W 001°43'6 6.0
2015-Jul-02 00:33N 49°44' W 001°38'2 2.0
2015-Jul-01 23:32N 49°44' W 001°34'1 0.8
2015-Jul-01 22:28N 49°44' W 001°33'6 1.3
2015-Jul-01 18:12N 49°39' W 001°37'7 1.0
2015-Jul-01 11:25N 49°45' W 001°42'2018.9
2015-Jul-01 10:21N 50°04' W 001°49'1618.9
2015-Jul-01 09:31N 50°20' W 001°52'1818.5
2015-Jul-01 08:33N 50°37' W 001°54'6 6.0
2015-Jul-01 07:33N 50°42' W 001°59'0 0.0
2015-Jul-01 06:33N 50°42' W 001°59'0 0.4
2015-Jul-01 05:33N 50°42' W 001°59'1313.4
2015-Jul-01 04:33N 50°30' W 001°52'4411.1
2015-Jul-01 00:33N 49°46' W 001°42'3 2.6
2015-Jun-30 23:33N 49°45' W 001°46'4 3.7
2015-Jun-30 22:33N 49°45' W 001°40'2 1.7
2015-Jun-30 21:33N 49°44' W 001°38'4 0.4
2015-Jun-30 11:17N 49°40' W 001°38'1215.7
2015-Jun-30 10:34N 49°51' W 001°44'1818.0
2015-Jun-30 09:34N 50°09' W 001°48'2019.2
2015-Jun-30 08:32N 50°28' W 001°53'1514.9
2015-Jun-30 07:33N 50°42' W 001°58'1 0.7
2015-Jun-30 06:33N 50°42' W 001°59'0 0.0
2015-Jun-30 05:33N 50°42' W 001°59'0 0.0
2015-Jun-30 04:33N 50°42' W 001°59'0 0.0
2015-Jun-30 03:33N 50°42' W 001°59'0 0.0
2015-Jun-30 02:33N 50°42' W 001°59'0 0.0
2015-Jun-30 01:33N 50°42' W 001°59'0 0.0
2015-Jun-30 00:33N 50°42' W 001°59'0 0.0
2015-Jun-29 23:33N 50°42' W 001°59'0 0.0
2015-Jun-29 22:33N 50°42' W 001°59'0 0.0
2015-Jun-29 21:33N 50°42' W 001°59'1 1.4
2015-Jun-29 20:33N 50°42' W 001°57'1515.3
2015-Jun-29 19:33N 50°27' W 001°51'1918.8
2015-Jun-29 18:33N 50°09' W 001°47'1918.4
2015-Jun-29 17:32N 49°50' W 001°42'12 9.9
2015-Jun-29 16:21N 49°39' W 001°37'0 0.0
2015-Jun-29 11:33N 49°39' W 001°37'1111.1
2015-Jun-29 10:33N 49°49' W 001°43'1918.6
2015-Jun-29 09:33N 50°07' W 001°50'2219.2
2015-Jun-29 08:26N 50°29' W 001°50'1415.8
2015-Jun-29 07:33N 50°42' W 001°57'1 1.5
2015-Jun-29 06:33N 50°42' W 001°59'0 0.0
2015-Jun-29 05:33N 50°42' W 001°59'0 0.0
2015-Jun-29 04:33N 50°42' W 001°59'0 0.0
2015-Jun-29 03:33N 50°42' W 001°59'0 0.0
2015-Jun-29 02:33N 50°42' W 001°59'0 0.0
2015-Jun-29 01:33N 50°42' W 001°59'0 0.0
2015-Jun-29 00:33N 50°42' W 001°59'0 0.0
2015-Jun-28 23:33N 50°42' W 001°59'0 0.0
2015-Jun-28 22:33N 50°42' W 001°59'0 0.0
2015-Jun-28 21:33N 50°42' W 001°59'0 0.0
2015-Jun-28 20:33N 50°42' W 001°59'1010.3
2015-Jun-28 19:33N 50°33' W 001°53'3 0.3
2015-Jun-28 08:33N 50°30' W 001°53'1312.7
2015-Jun-28 07:33N 50°42' W 001°59'1 0.5
2015-Jun-28 06:34N 50°42' W 001°59'0 0.0
2015-Jun-28 05:33N 50°42' W 001°59'0 0.0
2015-Jun-28 04:33N 50°42' W 001°59'0 0.0
2015-Jun-28 03:34N 50°42' W 001°59'0 0.0
2015-Jun-28 02:34N 50°42' W 001°59'0 0.0
2015-Jun-28 01:33N 50°42' W 001°59'0 0.0
2015-Jun-28 00:33N 50°42' W 001°59'0 0.0
2015-Jun-27 23:33N 50°42' W 001°59'0 0.0
2015-Jun-27 22:33N 50°42' W 001°59'0 0.0
2015-Jun-27 21:33N 50°42' W 001°59'0 0.0
2015-Jun-27 20:33N 50°42' W 001°59'1010.4
2015-Jun-27 19:33N 50°33' W 001°52'1918.6
2015-Jun-27 18:33N 50°15' W 001°46'1818.4
2015-Jun-27 17:33N 49°57' W 001°44'35 3.9
2015-Jun-27 08:22N 50°32' W 001°53'1113.6
2015-Jun-27 07:33N 50°42' W 001°58'1 1.0
2015-Jun-27 06:33N 50°42' W 001°59'0 0.0
2015-Jun-27 05:33N 50°42' W 001°59'0 0.0
2015-Jun-27 04:33N 50°42' W 001°59'0 0.0
2015-Jun-27 03:33N 50°42' W 001°59'0 0.0
2015-Jun-27 02:33N 50°42' W 001°59'0 0.0
2015-Jun-27 01:33N 50°42' W 001°59'0 0.0
2015-Jun-27 00:33N 50°42' W 001°59'0 0.0
2015-Jun-26 23:33N 50°42' W 001°59'0 0.0
2015-Jun-26 22:33N 50°42' W 001°59'0 0.0
2015-Jun-26 21:33N 50°42' W 001°59'0 0.0
2015-Jun-26 20:33N 50°42' W 001°59'10 9.8
2015-Jun-26 19:33N 50°34' W 001°52'1918.9
2015-Jun-26 18:33N 50°15' W 001°44'36 5.1
2015-Jun-26 11:27N 49°39' W 001°37'1314.1
2015-Jun-26 10:31N 49°52' W 001°44'1718.0
2015-Jun-26 09:33N 50°09' W 001°48'2118.8
2015-Jun-26 08:25N 50°30' W 001°52'1314.7
2015-Jun-26 07:33N 50°42' W 001°58'1 0.8
2015-Jun-26 06:33N 50°42' W 001°59'0 0.0
2015-Jun-26 05:33N 50°42' W 001°59'0 0.0
2015-Jun-26 04:33N 50°42' W 001°59'0 0.0
2015-Jun-26 03:33N 50°42' W 001°59'0 0.0
2015-Jun-26 02:33N 50°42' W 001°59'0 0.0
2015-Jun-26 01:33N 50°42' W 001°59'0 0.0
2015-Jun-26 00:33N 50°42' W 001°59'0 0.0
2015-Jun-25 23:34N 50°42' W 001°59'0 0.0
2015-Jun-25 22:34N 50°42' W 001°59'0 0.0
2015-Jun-25 21:33N 50°42' W 001°59'0 0.0
2015-Jun-25 20:34N 50°42' W 001°59'10 9.8
2015-Jun-25 19:34N 50°34' W 001°53'1918.9
2015-Jun-25 18:33N 50°15' W 001°46'1918.9
2015-Jun-25 17:33N 49°57' W 001°39'1817.4
2015-Jun-25 16:33N 49°39' W 001°37'0 0.1
2015-Jun-25 13:30N 49°39' W 001°37'0 0.0
2015-Jun-25 12:33N 49°39' W 001°37'0 0.1
2015-Jun-25 11:33N 49°39' W 001°37'1515.0
2015-Jun-25 10:33N 49°53' W 001°43'1918.6
2015-Jun-25 09:34N 50°11' W 001°52'  
Track history (hours):
 
Tides and Currents Weather Stations Pressure Air Temp Water Temp Dewpoint Dewpoint Depression Visibility Wind Speed Wind Dir Waves Ship Positions

Barfleur

Operator: Brittany Ferries

Last reported at 2015-Jul-05 08:33 UTC. Time now 2015-Jul-05 19:24 UTC.
Position N 50°30' W 001°52'.

Length 158 m; draft 5 m.

Type: Passenger vessel. MMSI: 227289000.

Date/timePositionNaut miles runAvg speedWind from/ knotsBaromVisibWave heightAir tempDewpointWater temp
2015-Jul-05 08:33N 50°30' W 001°52'1313.3
2015-Jul-05 07:33N 50°42' W 001°58'1 1.1
2015-Jul-05 06:33N 50°42' W 001°59'0 0.0
2015-Jul-05 05:34N 50°42' W 001°59'0 0.0
2015-Jul-05 04:33N 50°42' W 001°59'0 0.0
2015-Jul-05 03:34N 50°42' W 001°59'0 0.0
2015-Jul-05 02:33N 50°42' W 001°59'0 0.0
2015-Jul-05 01:33N 50°42' W 001°59'0 0.0
2015-Jul-05 00:33N 50°42' W 001°59'0 0.0
2015-Jul-04 23:33N 50°42' W 001°59'0 0.0
2015-Jul-04 22:32N 50°42' W 001°59'0 0.0
2015-Jul-04 21:34N 50°42' W 001°59'0 0.0
2015-Jul-04 20:34N 50°42' W 001°59'1212.3
2015-Jul-04 19:33N 50°31' W 001°51'2019.2
2015-Jul-04 18:31N 50°11' W 001°47'1819.1
2015-Jul-04 17:33N 49°53' W 001°43'1512.1
2015-Jul-04 16:19N 49°39' W 001°37'0 0.0
2015-Jul-04 15:33N 49°39' W 001°37'53 7.6
2015-Jul-04 08:33N 50°31' W 001°52'1211.9
2015-Jul-04 07:33N 50°42' W 001°59'0 0.1
2015-Jul-04 06:33N 50°42' W 001°59'0 0.0
2015-Jul-04 05:33N 50°42' W 001°59'0 0.0
2015-Jul-04 04:34N 50°42' W 001°59'0 0.0
2015-Jul-04 03:33N 50°42' W 001°59'0 0.0
2015-Jul-04 02:33N 50°42' W 001°59'0 0.0
2015-Jul-04 01:33N 50°42' W 001°59'0 0.0
2015-Jul-03 22:33N 50°42' W 001°59'0 0.0
2015-Jul-03 21:33N 50°42' W 001°59'0 0.2
2015-Jul-03 20:33N 50°42' W 001°59'1212.3
2015-Jul-03 19:33N 50°31' W 001°50'2119.1
2015-Jul-03 18:27N 50°10' W 001°49'32 4.6
2015-Jul-03 11:31N 49°40' W 001°37'1616.2
2015-Jul-03 10:33N 49°54' W 001°46'1918.6
2015-Jul-03 09:32N 50°13' W 001°45'1919.2
2015-Jul-03 08:33N 50°31' W 001°52'1212.0
2015-Jul-03 07:33N 50°42' W 001°59'0 0.1
2015-Jul-03 06:33N 50°42' W 001°59'0 0.0
2015-Jul-03 05:33N 50°42' W 001°59'0 0.0
2015-Jul-03 04:34N 50°42' W 001°59'0 0.0
2015-Jul-03 03:33N 50°42' W 001°59'0 0.0
2015-Jul-03 02:33N 50°42' W 001°59'0 0.0
2015-Jul-03 01:33N 50°42' W 001°59'0 0.0
2015-Jul-03 00:33N 50°42' W 001°59'0 0.0
2015-Jul-02 23:33N 50°42' W 001°59'0 0.0
2015-Jul-02 22:33N 50°42' W 001°59'0 0.0
2015-Jul-02 21:33N 50°42' W 001°59'4 3.6
2015-Jul-02 20:34N 50°40' W 001°56'1616.4
2015-Jul-02 19:33N 50°24' W 001°47'7 0.6
2015-Jul-02 08:33N 50°31' W 001°51'1313.0
2015-Jul-02 07:34N 50°42' W 001°59'0 0.0
2015-Jul-02 06:33N 50°42' W 001°59'0 0.1
2015-Jul-02 05:33N 50°42' W 001°60'1211.9
2015-Jul-02 04:33N 50°31' W 001°52'1614.2
2015-Jul-02 03:25N 50°16' W 001°45'1314.6
2015-Jul-02 02:32N 50°03' W 001°45'1414.4
2015-Jul-02 01:32N 49°49' W 001°43'6 6.0
2015-Jul-02 00:33N 49°44' W 001°38'2 2.0
2015-Jul-01 23:32N 49°44' W 001°34'1 0.8
2015-Jul-01 22:28N 49°44' W 001°33'6 1.3
2015-Jul-01 18:12N 49°39' W 001°37'7 1.0
2015-Jul-01 11:25N 49°45' W 001°42'2018.9
2015-Jul-01 10:21N 50°04' W 001°49'1618.9
2015-Jul-01 09:31N 50°20' W 001°52'1818.5
2015-Jul-01 08:33N 50°37' W 001°54'6 6.0
2015-Jul-01 07:33N 50°42' W 001°59'0 0.0
2015-Jul-01 06:33N 50°42' W 001°59'0 0.4
2015-Jul-01 05:33N 50°42' W 001°59'1313.4
2015-Jul-01 04:33N 50°30' W 001°52'4411.1
2015-Jul-01 00:33N 49°46' W 001°42'3 2.6
2015-Jun-30 23:33N 49°45' W 001°46'4 3.7
2015-Jun-30 22:33N 49°45' W 001°40'2 1.7
2015-Jun-30 21:33N 49°44' W 001°38'4 0.4
2015-Jun-30 11:17N 49°40' W 001°38'1215.7
2015-Jun-30 10:34N 49°51' W 001°44'1818.0
2015-Jun-30 09:34N 50°09' W 001°48'2019.2
2015-Jun-30 08:32N 50°28' W 001°53'1514.9
2015-Jun-30 07:33N 50°42' W 001°58'1 0.7
2015-Jun-30 06:33N 50°42' W 001°59'0 0.0
2015-Jun-30 05:33N 50°42' W 001°59'0 0.0
2015-Jun-30 04:33N 50°42' W 001°59'0 0.0
2015-Jun-30 03:33N 50°42' W 001°59'0 0.0
2015-Jun-30 02:33N 50°42' W 001°59'0 0.0
2015-Jun-30 01:33N 50°42' W 001°59'0 0.0
2015-Jun-30 00:33N 50°42' W 001°59'0 0.0
2015-Jun-29 23:33N 50°42' W 001°59'0 0.0
2015-Jun-29 22:33N 50°42' W 001°59'0 0.0
2015-Jun-29 21:33N 50°42' W 001°59'1 1.4
2015-Jun-29 20:33N 50°42' W 001°57'1515.3
2015-Jun-29 19:33N 50°27' W 001°51'1918.8
2015-Jun-29 18:33N 50°09' W 001°47'1918.4
2015-Jun-29 17:32N 49°50' W 001°42'12 9.9
2015-Jun-29 16:21N 49°39' W 001°37'0 0.0
2015-Jun-29 11:33N 49°39' W 001°37'1111.1
2015-Jun-29 10:33N 49°49' W 001°43'1918.6
2015-Jun-29 09:33N 50°07' W 001°50'2219.2
2015-Jun-29 08:26N 50°29' W 001°50'1415.8
2015-Jun-29 07:33N 50°42' W 001°57'1 1.5
2015-Jun-29 06:33N 50°42' W 001°59'0 0.0
2015-Jun-29 05:33N 50°42' W 001°59'0 0.0
2015-Jun-29 04:33N 50°42' W 001°59'0 0.0
2015-Jun-29 03:33N 50°42' W 001°59'0 0.0
2015-Jun-29 02:33N 50°42' W 001°59'0 0.0
2015-Jun-29 01:33N 50°42' W 001°59'0 0.0
2015-Jun-29 00:33N 50°42' W 001°59'0 0.0
2015-Jun-28 23:33N 50°42' W 001°59'0 0.0
2015-Jun-28 22:33N 50°42' W 001°59'0 0.0
2015-Jun-28 21:33N 50°42' W 001°59'0 0.0
2015-Jun-28 20:33N 50°42' W 001°59'1010.3
2015-Jun-28 19:33N 50°33' W 001°53'3 0.3
2015-Jun-28 08:33N 50°30' W 001°53'1312.7
2015-Jun-28 07:33N 50°42' W 001°59'1 0.5
2015-Jun-28 06:34N 50°42' W 001°59'0 0.0
2015-Jun-28 05:33N 50°42' W 001°59'0 0.0
2015-Jun-28 04:33N 50°42' W 001°59'0 0.0
2015-Jun-28 03:34N 50°42' W 001°59'0 0.0
2015-Jun-28 02:34N 50°42' W 001°59'0 0.0
2015-Jun-28 01:33N 50°42' W 001°59'0 0.0
2015-Jun-28 00:33N 50°42' W 001°59'0 0.0
2015-Jun-27 23:33N 50°42' W 001°59'0 0.0
2015-Jun-27 22:33N 50°42' W 001°59'0 0.0
2015-Jun-27 21:33N 50°42' W 001°59'0 0.0
2015-Jun-27 20:33N 50°42' W 001°59'1010.4
2015-Jun-27 19:33N 50°33' W 001°52'1918.6
2015-Jun-27 18:33N 50°15' W 001°46'1818.4
2015-Jun-27 17:33N 49°57' W 001°44'35 3.9
2015-Jun-27 08:22N 50°32' W 001°53'1113.6
2015-Jun-27 07:33N 50°42' W 001°58'1 1.0
2015-Jun-27 06:33N 50°42' W 001°59'0 0.0
2015-Jun-27 05:33N 50°42' W 001°59'0 0.0
2015-Jun-27 04:33N 50°42' W 001°59'0 0.0
2015-Jun-27 03:33N 50°42' W 001°59'0 0.0
2015-Jun-27 02:33N 50°42' W 001°59'0 0.0
2015-Jun-27 01:33N 50°42' W 001°59'0 0.0
2015-Jun-27 00:33N 50°42' W 001°59'0 0.0
2015-Jun-26 23:33N 50°42' W 001°59'0 0.0
2015-Jun-26 22:33N 50°42' W 001°59'0 0.0
2015-Jun-26 21:33N 50°42' W 001°59'0 0.0
2015-Jun-26 20:33N 50°42' W 001°59'10 9.8
2015-Jun-26 19:33N 50°34' W 001°52'1918.9
2015-Jun-26 18:33N 50°15' W 001°44'36 5.1
2015-Jun-26 11:27N 49°39' W 001°37'1314.1
2015-Jun-26 10:31N 49°52' W 001°44'1718.0
2015-Jun-26 09:33N 50°09' W 001°48'2118.8
2015-Jun-26 08:25N 50°30' W 001°52'1314.7
2015-Jun-26 07:33N 50°42' W 001°58'1 0.8
2015-Jun-26 06:33N 50°42' W 001°59'0 0.0
2015-Jun-26 05:33N 50°42' W 001°59'0 0.0
2015-Jun-26 04:33N 50°42' W 001°59'0 0.0
2015-Jun-26 03:33N 50°42' W 001°59'0 0.0
2015-Jun-26 02:33N 50°42' W 001°59'0 0.0
2015-Jun-26 01:33N 50°42' W 001°59'0 0.0
2015-Jun-26 00:33N 50°42' W 001°59'0 0.0
2015-Jun-25 23:34N 50°42' W 001°59'0 0.0
2015-Jun-25 22:34N 50°42' W 001°59'0 0.0
2015-Jun-25 21:33N 50°42' W 001°59'0 0.0
2015-Jun-25 20:34N 50°42' W 001°59'10 9.8
2015-Jun-25 19:34N 50°34' W 001°53'1918.9
2015-Jun-25 18:33N 50°15' W 001°46'1918.9
2015-Jun-25 17:33N 49°57' W 001°39'1817.4
2015-Jun-25 16:33N 49°39' W 001°37'0 0.1
2015-Jun-25 13:30N 49°39' W 001°37'0 0.0
2015-Jun-25 12:33N 49°39' W 001°37'0 0.1
2015-Jun-25 11:33N 49°39' W 001°37'1515.0
2015-Jun-25 10:33N 49°53' W 001°43'1918.6
2015-Jun-25 09:34N 50°11' W 001°52'  

Dump ship's entire track history